createdAt,value
2017-12-20T00:00:16.409Z,85.20
2017-12-20T00:01:20.796Z,84.60
2017-12-20T00:02:25.081Z,85.78
2017-12-20T00:03:29.995Z,74.82
2017-12-20T00:04:34.158Z,80.53
2017-12-20T00:05:38.430Z,76.32
2017-12-20T00:06:42.655Z,83.15
2017-12-20T00:07:46.797Z,86.60
2017-12-20T00:08:52.073Z,72.80
2017-12-20T00:09:56.231Z,72.12
2017-12-20T00:11:01.193Z,76.50
2017-12-20T00:12:05.659Z,69.22
2017-12-20T00:13:10.634Z,65.22
2017-12-20T00:14:15.199Z,66.30
2017-12-20T00:15:19.707Z,76.20
2017-12-20T00:16:24.014Z,64.70
2017-12-20T00:17:29.070Z,75.80
2017-12-20T00:18:33.318Z,72.95
2017-12-20T00:19:37.531Z,64.65
2017-12-20T00:20:41.791Z,72.15
2017-12-20T00:21:45.959Z,66.15
2017-12-20T00:22:51.059Z,68.85
2017-12-20T00:23:55.497Z,72.53
2017-12-20T00:25:00.051Z,64.53
2017-12-20T00:26:06.046Z,65.93
2017-12-20T00:27:11.850Z,64.45
2017-12-20T00:28:16.085Z,62.45
2017-12-20T00:29:20.243Z,61.22
2017-12-20T00:30:24.786Z,72.78
2017-12-20T00:31:29.295Z,67.17
2017-12-20T00:32:33.436Z,70.32
2017-12-20T00:33:38.620Z,67.32
2017-12-20T00:34:42.906Z,71.37
2017-12-20T00:35:47.601Z,62.78
2017-12-20T00:36:52.775Z,59.97
2017-12-20T00:37:56.914Z,64.10
2017-12-20T00:39:03.854Z,57.13
2017-12-20T00:40:08.919Z,58.47
2017-12-20T00:41:13.980Z,59.97
2017-12-20T00:42:18.326Z,62.13
2017-12-20T00:43:22.558Z,60.78
2017-12-20T00:44:28.806Z,54.80
2017-12-20T00:45:33.947Z,58.47
2017-12-20T00:46:39.457Z,57.30
2017-12-20T00:47:43.904Z,59.78
2017-12-20T00:48:48.501Z,61.17
2017-12-20T00:49:54.619Z,63.13
2017-12-20T00:50:59.608Z,69.25
2017-12-20T00:52:03.794Z,66.32
2017-12-20T00:53:08.034Z,66.68
2017-12-20T00:54:12.401Z,61.88
2017-12-20T00:55:17.484Z,66.55
2017-12-20T00:56:23.114Z,68.00
2017-12-20T00:57:27.656Z,73.93
2017-12-20T00:58:32.534Z,67.75
2017-12-20T00:59:36.560Z,68.00
2017-12-20T01:00:40.896Z,71.30
2017-12-20T01:01:45.028Z,63.85
2017-12-20T01:02:49.298Z,64.93
2017-12-20T01:03:53.457Z,60.17
2017-12-20T01:04:57.533Z,54.65
2017-12-20T01:06:01.676Z,64.07
2017-12-20T01:07:06.978Z,64.65
2017-12-20T01:08:11.659Z,65.28
2017-12-20T01:09:16.547Z,64.93
2017-12-20T01:10:21.120Z,62.80
2017-12-20T01:11:25.386Z,62.63
2017-12-20T01:12:29.901Z,63.42
2017-12-20T01:13:34.062Z,63.30
2017-12-20T01:14:38.124Z,61.78
2017-12-20T01:15:43.090Z,62.70
2017-12-20T01:16:47.274Z,61.95
2017-12-20T01:17:51.587Z,65.45
2017-12-20T01:18:55.847Z,68.60
2017-12-20T01:20:00.767Z,63.83
2017-12-20T01:21:05.449Z,61.55
2017-12-20T01:22:09.900Z,58.53
2017-12-20T01:23:14.919Z,67.07
2017-12-20T01:24:19.889Z,59.95
2017-12-20T01:25:24.431Z,58.20
2017-12-20T01:26:28.528Z,61.08
2017-12-20T01:27:32.687Z,71.53
2017-12-20T01:28:36.819Z,67.82
2017-12-20T01:29:40.922Z,68.30
2017-12-20T01:30:45.470Z,68.85
2017-12-20T01:31:49.464Z,68.55
2017-12-20T01:32:53.885Z,66.50
2017-12-20T01:33:58.162Z,64.85
2017-12-20T01:35:02.474Z,61.97
2017-12-20T01:36:06.581Z,69.22
2017-12-20T01:37:11.680Z,65.15
2017-12-20T01:38:16.038Z,63.63
2017-12-20T01:39:20.999Z,58.17
2017-12-20T01:40:25.298Z,58.03
2017-12-20T01:41:30.268Z,68.15
2017-12-20T01:42:34.514Z,74.75
2017-12-20T01:43:39.346Z,70.95
2017-12-20T01:44:43.567Z,64.57
2017-12-20T01:45:48.016Z,67.10
2017-12-20T01:46:52.971Z,63.87
2017-12-20T01:47:57.883Z,79.62
2017-12-20T01:49:03.161Z,65.80
2017-12-20T01:50:07.973Z,68.03
2017-12-20T01:51:11.985Z,73.60
2017-12-20T01:52:16.327Z,71.47
2017-12-20T01:53:20.770Z,72.85
2017-12-20T01:54:24.989Z,65.60
2017-12-20T01:55:29.486Z,67.95
2017-12-20T01:56:34.767Z,79.78
2017-12-20T01:57:38.989Z,72.15
2017-12-20T01:58:43.891Z,68.07
2017-12-20T01:59:48.302Z,76.12
2017-12-20T02:00:53.321Z,62.47
2017-12-20T02:01:57.458Z,71.97
2017-12-20T02:03:02.645Z,71.22
2017-12-20T02:04:07.185Z,75.80
2017-12-20T02:05:12.285Z,66.40
2017-12-20T02:06:16.758Z,76.87
2017-12-20T02:07:22.068Z,80.10
2017-12-20T02:08:26.327Z,80.72
2017-12-20T02:09:30.738Z,79.97
2017-12-20T02:10:35.674Z,79.28
2017-12-20T02:11:40.995Z,81.00
2017-12-20T02:12:45.743Z,80.57
2017-12-20T02:13:51.245Z,92.70
2017-12-20T02:14:56.789Z,93.93
2017-12-20T02:16:01.494Z,90.10
2017-12-20T02:17:06.013Z,89.03
2017-12-20T02:18:10.335Z,82.88
2017-12-20T02:19:15.667Z,88.95
2017-12-20T02:20:20.917Z,83.50
2017-12-20T02:21:26.261Z,92.65
2017-12-20T02:22:30.829Z,103.28
2017-12-20T02:23:35.980Z,94.80
2017-12-20T02:24:41.284Z,91.82
2017-12-20T02:25:46.007Z,93.75
2017-12-20T02:26:50.435Z,99.18
2017-12-20T02:27:55.323Z,90.12
2017-12-20T02:29:00.702Z,83.03
2017-12-20T02:30:05.914Z,91.70
2017-12-20T02:31:10.500Z,89.80
2017-12-20T02:32:15.018Z,95.70
2017-12-20T02:33:28.135Z,93.22
2017-12-20T02:34:32.413Z,83.05
2017-12-20T02:35:36.450Z,93.25
2017-12-20T02:36:42.274Z,94.40
2017-12-20T02:37:47.207Z,101.25
2017-12-20T02:38:51.514Z,92.20
2017-12-20T02:39:55.785Z,103.18
2017-12-20T02:40:59.839Z,102.87
2017-12-20T02:42:09.558Z,102.35
2017-12-20T02:43:13.724Z,108.87
2017-12-20T02:44:17.836Z,95.32
2017-12-20T02:45:22.022Z,93.45
2017-12-20T02:46:26.392Z,92.35
2017-12-20T02:47:30.678Z,94.95
2017-12-20T02:48:35.423Z,137.10
2017-12-20T02:49:40.697Z,151.75
2017-12-20T02:50:45.590Z,116.50
2017-12-20T02:51:49.732Z,113.78
2017-12-20T02:52:53.785Z,121.20
2017-12-20T02:53:58.348Z,134.50
2017-12-20T02:55:03.035Z,131.02
2017-12-20T02:56:07.291Z,95.62
2017-12-20T02:57:11.527Z,109.35
2017-12-20T02:58:16.534Z,97.25
2017-12-20T02:59:21.739Z,101.03
2017-12-20T03:00:26.015Z,94.18
2017-12-20T03:01:30.506Z,91.05
2017-12-20T03:02:35.442Z,99.60
2017-12-20T03:03:40.074Z,99.95
2017-12-20T03:04:45.846Z,110.75
2017-12-20T03:05:51.006Z,99.30
2017-12-20T03:06:55.849Z,109.60
2017-12-20T03:08:00.231Z,113.75
2017-12-20T03:09:05.559Z,109.57
2017-12-20T03:10:09.818Z,113.55
2017-12-20T03:11:14.325Z,103.43
2017-12-20T03:12:18.494Z,111.40
2017-12-20T03:13:23.108Z,116.30
2017-12-20T03:14:27.552Z,122.18
2017-12-20T03:15:32.211Z,111.50
2017-12-20T03:16:36.530Z,123.10
2017-12-20T03:17:41.518Z,111.62
2017-12-20T03:20:53.398Z,105.40
2017-12-20T03:21:58.146Z,111.55
2017-12-20T03:23:03.444Z,105.00
2017-12-20T03:24:07.735Z,106.82
2017-12-20T03:25:11.797Z,105.60
2017-12-20T03:26:16.758Z,96.18
2017-12-20T03:27:21.251Z,108.95
2017-12-20T03:28:25.399Z,111.85
2017-12-20T03:29:29.482Z,95.90
2017-12-20T03:30:33.797Z,103.65
2017-12-20T03:31:39.102Z,104.15
2017-12-20T03:32:43.560Z,101.25
2017-12-20T03:33:48.405Z,94.90
2017-12-20T03:34:54.200Z,106.57
2017-12-20T03:35:58.655Z,105.72
2017-12-20T03:37:03.402Z,110.57
2017-12-20T03:38:08.142Z,109.80
2017-12-20T03:39:12.795Z,113.45
2017-12-20T03:40:17.243Z,113.22
2017-12-20T03:41:21.508Z,111.82
2017-12-20T03:42:27.214Z,110.90
2017-12-20T03:43:31.481Z,106.70
2017-12-20T03:44:37.217Z,121.10
2017-12-20T03:45:42.805Z,113.60
2017-12-20T03:46:47.040Z,117.00
2017-12-20T03:47:51.575Z,106.53
2017-12-20T03:48:57.685Z,116.70
2017-12-20T03:50:02.208Z,114.00
2017-12-20T03:51:06.803Z,112.63
2017-12-20T03:52:11.533Z,116.93
2017-12-20T03:53:15.876Z,111.18
2017-12-20T03:54:20.430Z,117.35
2017-12-20T03:55:24.916Z,119.10
2017-12-20T03:56:37.428Z,110.35
2017-12-20T03:57:42.240Z,112.82
2017-12-20T03:58:46.517Z,119.22
2017-12-20T03:59:51.839Z,108.72
2017-12-20T04:00:56.059Z,110.97
2017-12-20T04:02:00.473Z,111.70
2017-12-20T04:03:05.504Z,113.85
2017-12-20T04:04:09.538Z,110.07
2017-12-20T04:05:14.599Z,158.70
2017-12-20T04:06:19.296Z,133.07
2017-12-20T04:07:24.083Z,119.25
2017-12-20T04:08:28.394Z,111.32
2017-12-20T04:09:32.423Z,121.35
2017-12-20T04:10:36.619Z,118.15
2017-12-20T04:11:41.122Z,123.18
2017-12-20T04:12:45.206Z,101.05
2017-12-20T04:13:49.673Z,106.85
2017-12-20T04:14:54.612Z,109.12
2017-12-20T04:15:59.727Z,118.28
2017-12-20T04:17:04.280Z,110.22
2017-12-20T04:18:08.794Z,105.00
2017-12-20T04:19:13.369Z,114.68
2017-12-20T04:20:18.868Z,113.50
2017-12-20T04:21:23.419Z,110.57
2017-12-20T04:22:28.388Z,102.10
2017-12-20T04:23:33.021Z,114.78
2017-12-20T04:24:37.718Z,123.45
2017-12-20T04:25:42.154Z,97.78
2017-12-20T04:26:47.157Z,103.82
2017-12-20T04:27:51.399Z,120.30
2017-12-20T04:28:55.826Z,109.20
2017-12-20T04:30:00.757Z,96.45
2017-12-20T04:31:05.608Z,104.43
2017-12-20T04:32:09.654Z,103.32
2017-12-20T04:33:14.441Z,106.18
2017-12-20T04:34:18.514Z,107.47
2017-12-20T04:35:22.639Z,105.75
2017-12-20T04:36:26.746Z,100.30
2017-12-20T04:37:31.045Z,104.50
2017-12-20T04:38:35.093Z,105.12
2017-12-20T04:39:39.912Z,102.60
2017-12-20T04:40:44.703Z,103.18
2017-12-20T04:41:48.687Z,105.10
2017-12-20T04:42:52.780Z,113.75
2017-12-20T04:43:57.558Z,108.10
2017-12-20T04:45:02.017Z,118.25
2017-12-20T04:46:07.011Z,121.93
2017-12-20T04:47:11.151Z,114.53
2017-12-20T04:48:15.646Z,115.72
2017-12-20T04:49:19.905Z,120.68
2017-12-20T04:50:25.154Z,120.45
2017-12-20T04:51:30.516Z,113.97
2017-12-20T04:52:34.617Z,114.15
2017-12-20T04:53:38.608Z,122.72
2017-12-20T04:54:42.782Z,122.57
2017-12-20T04:55:46.910Z,124.47
2017-12-20T04:56:51.231Z,119.90
2017-12-20T04:57:55.282Z,126.82
2017-12-20T04:59:00.198Z,138.50
2017-12-20T05:00:04.746Z,131.10
2017-12-20T05:01:09.259Z,128.02
2017-12-20T05:02:13.448Z,120.80
2017-12-20T05:03:18.426Z,138.98
2017-12-20T05:04:22.701Z,121.23
2017-12-20T05:05:27.013Z,133.35
2017-12-20T05:06:31.539Z,136.68
2017-12-20T05:07:35.575Z,133.00
2017-12-20T05:08:40.458Z,128.20
2017-12-20T05:09:44.515Z,129.25
2017-12-20T05:10:49.334Z,137.55
2017-12-20T05:11:53.362Z,124.25
2017-12-20T05:12:57.435Z,127.97
2017-12-20T05:14:02.205Z,140.48
2017-12-20T05:15:06.235Z,147.02
2017-12-20T05:16:10.454Z,145.43
2017-12-20T05:17:15.325Z,142.50
2017-12-20T05:18:19.434Z,133.30
2017-12-20T05:19:23.900Z,144.13
2017-12-20T05:20:29.913Z,141.97
2017-12-20T05:21:35.162Z,124.50
2017-12-20T05:22:40.234Z,147.23
2017-12-20T05:23:44.473Z,132.57
2017-12-20T05:24:48.721Z,131.40
2017-12-20T05:25:52.911Z,148.87
2017-12-20T05:27:03.360Z,150.20
2017-12-20T05:28:07.473Z,136.80
2017-12-20T05:29:11.522Z,143.57
2017-12-20T05:30:15.960Z,161.70
2017-12-20T05:31:20.953Z,138.60
2017-12-20T05:32:24.953Z,144.90
2017-12-20T05:33:28.960Z,143.87
2017-12-20T05:34:33.022Z,158.10
2017-12-20T05:35:37.072Z,158.95
2017-12-20T05:36:41.069Z,165.30
2017-12-20T05:37:45.152Z,138.50
2017-12-20T05:38:49.246Z,142.75
2017-12-20T05:39:53.276Z,145.90
2017-12-20T05:40:57.264Z,139.48
2017-12-20T05:42:01.377Z,142.40
2017-12-20T05:43:05.993Z,137.55
2017-12-20T05:44:10.041Z,156.73
2017-12-20T05:45:14.038Z,150.80
2017-12-20T05:46:18.242Z,152.27
2017-12-20T05:47:22.225Z,141.95
2017-12-20T05:48:26.239Z,139.98
2017-12-20T05:49:30.624Z,137.32
2017-12-20T05:50:35.475Z,143.43
2017-12-20T05:51:39.510Z,152.00
2017-12-20T05:52:43.524Z,169.85
2017-12-20T05:53:47.589Z,159.75
2017-12-20T05:54:51.675Z,162.80
2017-12-20T05:55:55.836Z,152.20
2017-12-20T05:57:00.642Z,152.70
2017-12-20T05:58:05.531Z,153.57
2017-12-20T05:59:10.095Z,165.68
2017-12-20T06:00:15.148Z,135.23
2017-12-20T06:01:19.408Z,164.90
2017-12-20T06:02:23.651Z,161.17
2017-12-20T06:03:27.833Z,142.43
2017-12-20T06:04:32.892Z,143.98
2017-12-20T06:05:37.049Z,157.70
2017-12-20T06:06:43.120Z,176.87
2017-12-20T06:07:54.888Z,174.00
2017-12-20T06:08:59.001Z,157.18
2017-12-20T06:10:03.169Z,176.95
2017-12-20T06:11:07.270Z,164.65
2017-12-20T06:12:11.538Z,162.43
2017-12-20T06:13:15.947Z,148.25
2017-12-20T06:14:20.202Z,153.12
2017-12-20T06:15:24.479Z,161.37
2017-12-20T06:16:28.761Z,151.10
2017-12-20T06:17:33.036Z,160.10
2017-12-20T06:18:37.701Z,167.00
2017-12-20T06:19:41.979Z,159.57
2017-12-20T06:20:46.220Z,171.98
2017-12-20T06:21:50.454Z,154.82
2017-12-20T06:22:54.446Z,165.37
2017-12-20T06:23:58.470Z,154.70
2017-12-20T06:25:02.475Z,151.70
2017-12-20T06:26:06.465Z,157.27
2017-12-20T06:27:10.540Z,158.52
2017-12-20T06:28:14.559Z,149.70
2017-12-20T06:29:18.606Z,150.85
2017-12-20T06:30:22.722Z,151.77
2017-12-20T06:31:26.972Z,159.68
2017-12-20T06:32:31.166Z,168.85
2017-12-20T06:33:39.024Z,152.75
2017-12-20T06:34:43.355Z,155.48
2017-12-20T06:35:47.544Z,142.13
2017-12-20T06:36:51.708Z,136.70
2017-12-20T06:37:56.609Z,152.00
2017-12-20T06:39:00.841Z,130.07
2017-12-20T06:40:05.047Z,151.43
2017-12-20T06:41:09.033Z,160.12
2017-12-20T06:42:13.814Z,154.95
2017-12-20T06:43:17.895Z,144.48
2017-12-20T06:44:22.014Z,161.95
2017-12-20T06:45:26.001Z,165.15
2017-12-20T06:46:30.127Z,166.68
2017-12-20T06:47:34.153Z,157.85
2017-12-20T06:48:39.172Z,152.90
2017-12-20T06:49:44.211Z,153.48
2017-12-20T06:50:49.015Z,150.15
2017-12-20T06:51:53.128Z,162.00
2017-12-20T06:52:58.771Z,147.55
2017-12-20T06:54:04.026Z,166.93
2017-12-20T06:55:08.417Z,153.98
2017-12-20T06:56:12.573Z,159.25
2017-12-20T06:57:16.678Z,148.15
2017-12-20T06:58:21.078Z,159.07
2017-12-20T06:59:25.455Z,157.65
2017-12-20T07:00:29.880Z,159.90
2017-12-20T07:01:34.947Z,145.45
2017-12-20T07:02:39.203Z,143.73
2017-12-20T07:03:44.208Z,147.93
2017-12-20T07:04:48.415Z,151.15
2017-12-20T07:05:52.645Z,144.55
2017-12-20T07:06:57.127Z,144.90
2017-12-20T07:08:01.401Z,145.50
2017-12-20T07:09:06.614Z,144.23
2017-12-20T07:10:10.859Z,131.57
2017-12-20T07:11:15.786Z,127.87
2017-12-20T07:12:19.974Z,129.50
2017-12-20T07:13:24.954Z,112.22
2017-12-20T07:14:29.177Z,117.15
2017-12-20T07:15:33.420Z,128.27
2017-12-20T07:16:38.363Z,121.82
2017-12-20T07:17:42.605Z,132.23
2017-12-20T07:18:46.746Z,125.03
2017-12-20T07:19:52.030Z,126.85
2017-12-20T07:20:56.273Z,144.52
2017-12-20T07:22:01.202Z,135.52
2017-12-20T07:23:06.260Z,127.82
2017-12-20T07:24:10.674Z,148.43
2017-12-20T07:25:14.941Z,127.82
2017-12-20T07:26:19.809Z,130.50
2017-12-20T07:27:23.862Z,130.45
2017-12-20T07:28:28.654Z,128.00
2017-12-20T07:29:32.891Z,126.93
2017-12-20T07:30:37.674Z,127.32
2017-12-20T07:31:41.664Z,118.95
2017-12-20T07:32:45.699Z,139.50
2017-12-20T07:33:50.529Z,127.38
2017-12-20T07:34:55.565Z,143.55
2017-12-20T07:35:59.897Z,138.82
2017-12-20T07:37:04.085Z,120.62
2017-12-20T07:38:08.304Z,127.87
2017-12-20T07:39:12.608Z,136.32
2017-12-20T07:40:16.927Z,149.05
2017-12-20T07:41:21.080Z,135.95
2017-12-20T07:42:25.922Z,122.57
2017-12-20T07:43:29.950Z,130.05
2017-12-20T07:44:34.057Z,133.98
2017-12-20T07:45:38.145Z,126.40
2017-12-20T07:46:42.232Z,136.82
2017-12-20T07:47:46.262Z,135.65
2017-12-20T07:48:50.300Z,135.73
2017-12-20T07:49:54.292Z,127.12
2017-12-20T07:50:59.142Z,125.82
2017-12-20T07:52:03.193Z,124.22
2017-12-20T07:53:07.350Z,127.82
2017-12-20T07:54:11.606Z,132.63
2017-12-20T07:55:15.857Z,144.55
2017-12-20T07:56:19.985Z,136.62
2017-12-20T07:57:24.086Z,140.02
2017-12-20T07:58:28.114Z,130.85
2017-12-20T07:59:32.193Z,140.82
2017-12-20T08:00:36.589Z,124.45
2017-12-20T08:01:40.752Z,141.18
2017-12-20T08:02:45.791Z,134.30
2017-12-20T08:03:50.825Z,131.20
2017-12-20T08:04:55.618Z,131.63
2017-12-20T08:05:59.891Z,116.50
2017-12-20T08:07:04.091Z,127.57
2017-12-20T08:08:08.275Z,126.40
2017-12-20T08:09:12.294Z,133.20
2017-12-20T08:10:16.295Z,141.10
2017-12-20T08:11:20.383Z,126.95
2017-12-20T08:12:24.478Z,127.60
2017-12-20T08:13:28.537Z,118.78
2017-12-20T08:14:32.583Z,129.63
2017-12-20T08:15:36.773Z,120.93
2017-12-20T08:16:41.012Z,129.18
2017-12-20T08:17:45.394Z,128.27
2017-12-20T08:18:49.880Z,128.98
2017-12-20T08:19:54.964Z,117.75
2017-12-20T08:20:59.395Z,114.18
2017-12-20T08:22:35.055Z,127.10
2017-12-20T08:23:40.619Z,120.25
2017-12-20T08:24:45.531Z,121.55
2017-12-20T08:25:49.642Z,137.80
2017-12-20T08:26:54.215Z,127.95
2017-12-20T08:27:58.389Z,126.57
2017-12-20T08:29:02.788Z,133.10
2017-12-20T08:30:10.692Z,112.68
2017-12-20T08:31:14.939Z,122.43
2017-12-20T08:32:19.139Z,268.20
2017-12-20T08:33:24.624Z,241.85
2017-12-20T08:34:28.982Z,188.02
2017-12-20T08:35:33.213Z,171.80
2017-12-20T08:36:38.174Z,133.15
2017-12-20T08:37:45.184Z,143.53
2017-12-20T08:38:50.136Z,140.25
2017-12-20T08:39:54.394Z,136.90
2017-12-20T08:40:58.806Z,132.10
2017-12-20T08:42:03.050Z,126.62
2017-12-20T08:43:07.354Z,128.15
2017-12-20T08:44:12.094Z,135.48
2017-12-20T08:45:16.327Z,123.03
2017-12-20T08:46:20.846Z,124.32
2017-12-20T08:47:25.024Z,122.43
2017-12-20T08:48:29.095Z,128.05
2017-12-20T08:49:34.151Z,131.75
2017-12-20T08:50:38.260Z,137.85
2017-12-20T08:51:42.847Z,130.05
2017-12-20T08:52:47.161Z,122.55
2017-12-20T08:53:51.229Z,135.32
2017-12-20T08:54:55.977Z,138.32
2017-12-20T08:56:00.529Z,122.40
2017-12-20T08:57:04.659Z,129.02
2017-12-20T08:58:08.661Z,142.18
2017-12-20T08:59:12.700Z,130.68
2017-12-20T09:00:16.701Z,137.05
2017-12-20T09:01:20.734Z,132.37
2017-12-20T09:02:25.136Z,127.20
2017-12-20T09:03:29.525Z,130.55
2017-12-20T09:04:33.708Z,133.40
2017-12-20T09:05:38.068Z,116.83
2017-12-20T09:06:42.238Z,131.30
2017-12-20T09:07:46.611Z,124.22
2017-12-20T09:08:50.882Z,125.12
2017-12-20T09:09:55.161Z,122.70
2017-12-20T09:10:59.443Z,116.37
2017-12-20T09:12:04.202Z,120.15
2017-12-20T09:13:08.371Z,140.75
2017-12-20T09:14:12.818Z,124.50
2017-12-20T09:15:17.048Z,128.80
2017-12-20T09:16:21.214Z,126.65
2017-12-20T09:17:25.441Z,136.32
2017-12-20T09:18:29.737Z,138.50
2017-12-20T09:19:33.923Z,130.35
2017-12-20T09:20:38.157Z,137.05
2017-12-20T09:21:42.153Z,124.43
2017-12-20T09:22:46.895Z,130.87
2017-12-20T09:23:51.337Z,126.28
2017-12-20T09:24:55.346Z,127.93
2017-12-20T09:25:59.429Z,132.87
2017-12-20T09:27:04.236Z,113.75
2017-12-20T09:28:09.076Z,133.82
2017-12-20T09:29:13.442Z,121.72
2017-12-20T09:30:17.422Z,125.50
2017-12-20T09:31:21.626Z,126.25
2017-12-20T09:32:25.827Z,130.37
2017-12-20T09:33:29.962Z,134.48
2017-12-20T09:34:33.976Z,130.82
2017-12-20T09:35:38.705Z,135.43
2017-12-20T09:36:43.524Z,136.23
2017-12-20T09:37:47.568Z,162.13
2017-12-20T09:38:51.578Z,127.28
2017-12-20T09:39:55.656Z,130.20
2017-12-20T09:40:59.788Z,136.70
2017-12-20T09:42:03.980Z,123.62
2017-12-20T09:43:08.269Z,123.83
2017-12-20T09:44:13.318Z,118.22
2017-12-20T09:45:17.455Z,268.25
2017-12-20T09:46:21.668Z,154.95
2017-12-20T09:47:26.694Z,157.75
2017-12-20T09:48:31.759Z,131.32
2017-12-20T09:49:35.972Z,138.85
2017-12-20T09:50:40.262Z,128.57
2017-12-20T09:51:45.000Z,132.43
2017-12-20T09:52:49.214Z,142.15
2017-12-20T09:53:53.430Z,125.43
2017-12-20T09:54:58.395Z,142.05
2017-12-20T09:56:02.613Z,136.60
2017-12-20T09:57:06.900Z,131.40
2017-12-20T09:58:11.872Z,140.50
2017-12-20T09:59:16.069Z,144.35
2017-12-20T10:00:20.280Z,142.87
2017-12-20T10:01:24.652Z,122.50
2017-12-20T10:02:28.889Z,152.32
2017-12-20T10:03:33.112Z,131.50
2017-12-20T10:04:37.253Z,129.70
2017-12-20T10:05:42.278Z,133.48
2017-12-20T10:06:47.463Z,135.33
2017-12-20T10:07:51.764Z,140.05
2017-12-20T10:08:56.018Z,144.70
2017-12-20T10:10:00.989Z,138.55
2017-12-20T10:11:05.169Z,134.48
2017-12-20T10:12:09.548Z,143.00
2017-12-20T10:13:14.529Z,180.30
2017-12-20T10:14:19.029Z,157.62
2017-12-20T10:15:23.579Z,159.25
2017-12-20T10:16:28.592Z,133.05
2017-12-20T10:17:32.866Z,135.43
2017-12-20T10:18:37.254Z,148.32
2017-12-20T10:19:41.907Z,156.48
2017-12-20T10:20:46.054Z,134.85
2017-12-20T10:21:51.204Z,153.52
2017-12-20T10:22:55.380Z,151.60
2017-12-20T10:24:00.382Z,154.60
2017-12-20T10:25:04.658Z,159.07
2017-12-20T10:26:08.878Z,131.35
2017-12-20T10:27:13.149Z,154.60
2017-12-20T10:28:17.224Z,146.75
2017-12-20T10:29:22.042Z,150.70
2017-12-20T10:30:26.853Z,144.23
2017-12-20T10:31:31.743Z,168.60
2017-12-20T10:32:35.840Z,163.77
2017-12-20T10:33:39.868Z,153.70
2017-12-20T10:34:43.982Z,141.05
2017-12-20T10:35:48.158Z,159.85
2017-12-20T10:36:52.235Z,151.90
2017-12-20T10:37:56.362Z,161.20
2017-12-20T10:39:00.461Z,143.50
2017-12-20T10:40:04.586Z,144.30
2017-12-20T10:41:09.310Z,144.53
2017-12-20T10:42:14.143Z,152.30
2017-12-20T10:43:19.170Z,155.30
2017-12-20T10:44:24.011Z,155.73
2017-12-20T10:45:28.143Z,146.27
2017-12-20T10:46:32.513Z,140.90
2017-12-20T10:47:36.714Z,159.50
2017-12-20T10:48:40.885Z,166.12
2017-12-20T10:49:45.345Z,156.93
2017-12-20T10:50:49.760Z,157.48
2017-12-20T10:51:54.141Z,156.37
2017-12-20T10:52:58.495Z,158.80
2017-12-20T10:54:03.180Z,150.35
2017-12-20T10:55:08.196Z,164.37
2017-12-20T10:56:12.593Z,169.43
2017-12-20T10:57:20.916Z,161.32
2017-12-20T10:58:25.196Z,161.77
2017-12-20T10:59:30.346Z,167.00
2017-12-20T11:00:34.555Z,170.17
2017-12-20T11:01:38.751Z,158.60
2017-12-20T11:02:42.800Z,159.80
2017-12-20T11:03:47.224Z,167.57
2017-12-20T11:04:53.460Z,146.65
2017-12-20T11:05:57.897Z,168.15
2017-12-20T11:07:04.161Z,164.97
2017-12-20T11:08:08.339Z,155.23
2017-12-20T11:09:12.345Z,140.73
2017-12-20T11:10:16.692Z,146.90
2017-12-20T11:11:20.833Z,150.93
2017-12-20T11:12:25.297Z,156.07
2017-12-20T11:13:29.369Z,167.80
2017-12-20T11:14:33.619Z,143.62
2017-12-20T11:15:40.022Z,165.57
2017-12-20T11:16:44.315Z,159.07
2017-12-20T11:18:19.466Z,150.12
2017-12-20T11:19:23.718Z,163.35
2017-12-20T11:20:28.061Z,161.60
2017-12-20T11:21:32.518Z,159.73
2017-12-20T11:22:36.964Z,155.40
2017-12-20T11:23:41.151Z,160.60
2017-12-20T11:24:45.435Z,151.87
2017-12-20T11:25:50.385Z,151.02
2017-12-20T11:26:54.571Z,148.13
2017-12-20T11:27:58.716Z,155.77
2017-12-20T11:29:02.844Z,143.48
2017-12-20T11:30:07.753Z,154.68
2017-12-20T11:31:12.657Z,144.30
2017-12-20T11:32:18.331Z,176.63
2017-12-20T11:33:23.300Z,146.95
2017-12-20T11:34:27.928Z,157.93
2017-12-20T11:35:32.435Z,151.60
2017-12-20T11:36:37.535Z,141.80
2017-12-20T11:37:42.421Z,136.95
2017-12-20T11:38:47.466Z,136.77
2017-12-20T11:39:51.878Z,145.75
2017-12-20T11:40:57.003Z,139.88
2017-12-20T11:42:02.033Z,138.30
2017-12-20T11:43:06.350Z,125.87
2017-12-20T11:44:10.593Z,116.47
2017-12-20T11:45:14.784Z,121.87
2017-12-20T11:46:19.220Z,119.18
2017-12-20T11:47:24.381Z,120.45
2017-12-20T11:48:29.524Z,126.00
2017-12-20T11:49:33.764Z,129.55
2017-12-20T11:50:38.022Z,131.50
2017-12-20T11:51:43.557Z,129.77
2017-12-20T11:52:47.857Z,130.82
2017-12-20T11:53:53.030Z,120.07
2017-12-20T11:54:58.652Z,127.75
2017-12-20T11:56:04.173Z,129.02
2017-12-20T11:57:08.812Z,133.27
2017-12-20T11:58:12.846Z,127.18
2017-12-20T11:59:17.022Z,131.85
2017-12-20T12:00:21.212Z,121.00
2017-12-20T12:01:25.427Z,128.87
2017-12-20T12:02:29.542Z,131.60
2017-12-20T12:03:34.192Z,132.55
2017-12-20T12:04:39.037Z,127.75
2017-12-20T12:05:44.087Z,131.15
2017-12-20T12:06:48.451Z,136.77
2017-12-20T12:07:53.451Z,137.43
2017-12-20T12:08:57.605Z,126.85
2017-12-20T12:10:02.459Z,142.43
2017-12-20T12:11:06.647Z,136.10
2017-12-20T12:12:10.904Z,138.73
2017-12-20T12:13:14.882Z,123.80
2017-12-20T12:14:18.951Z,129.12
2017-12-20T12:15:22.954Z,122.93
2017-12-20T12:16:27.063Z,121.15
2017-12-20T12:17:31.217Z,121.47
2017-12-20T12:18:35.342Z,117.45
2017-12-20T12:19:40.185Z,125.82
2017-12-20T12:20:44.246Z,126.60
2017-12-20T12:21:48.828Z,118.95
2017-12-20T12:22:52.949Z,131.20
2017-12-20T12:23:57.799Z,129.55
2017-12-20T12:25:02.607Z,122.60
2017-12-20T12:26:07.646Z,145.45
2017-12-20T12:27:13.200Z,123.07
2017-12-20T12:28:17.410Z,110.87
2017-12-20T12:29:22.572Z,123.35
2017-12-20T12:30:27.393Z,124.12
2017-12-20T12:31:32.307Z,117.93
2017-12-20T12:32:36.615Z,131.75
2017-12-20T12:33:40.981Z,130.90
2017-12-20T12:36:04.651Z,124.68
2017-12-20T12:37:23.441Z,125.60
2017-12-20T12:38:28.331Z,149.98
2017-12-20T12:39:34.624Z,131.20
2017-12-20T12:40:39.757Z,134.95
2017-12-20T12:41:45.583Z,132.05
2017-12-20T12:42:50.252Z,127.40
2017-12-20T12:43:54.565Z,131.48
2017-12-20T12:44:58.818Z,130.73
2017-12-20T12:46:04.640Z,133.65
2017-12-20T12:47:09.193Z,143.75
2017-12-20T12:50:21.702Z,115.17
2017-12-20T12:51:29.007Z,122.90
2017-12-20T12:52:35.107Z,125.55
2017-12-20T12:53:41.756Z,112.37
2017-12-20T12:54:48.456Z,126.47
2017-12-20T12:55:54.501Z,133.63
2017-12-20T12:56:59.808Z,134.43
2017-12-20T12:58:04.432Z,131.23
2017-12-20T12:59:09.204Z,140.48
2017-12-20T13:00:17.983Z,120.87
2017-12-20T13:01:23.495Z,116.37
2017-12-20T13:02:29.113Z,128.25
2017-12-20T13:03:33.724Z,119.72
2017-12-20T13:04:39.896Z,126.87
2017-12-20T13:05:44.344Z,112.88
2017-12-20T13:06:48.966Z,129.35
2017-12-20T13:07:53.983Z,124.00
2017-12-20T13:08:59.338Z,116.90
2017-12-20T13:10:04.452Z,127.35
2017-12-20T13:11:08.751Z,122.00
2017-12-20T13:12:13.255Z,119.53
2017-12-20T13:13:18.039Z,126.82
2017-12-20T13:14:23.869Z,113.75
2017-12-20T13:15:28.357Z,115.30
2017-12-20T13:16:33.783Z,115.97
2017-12-20T13:17:38.476Z,118.85
2017-12-20T13:18:43.590Z,108.50
2017-12-20T13:19:47.946Z,120.97
2017-12-20T13:20:52.941Z,126.60
2017-12-20T13:21:57.296Z,124.70
2017-12-20T13:23:02.220Z,130.37
2017-12-20T13:24:07.412Z,124.70
2017-12-20T13:25:11.621Z,120.32
2017-12-20T13:26:15.742Z,126.95
2017-12-20T13:27:21.275Z,117.70
2017-12-20T13:28:27.102Z,121.07
2017-12-20T13:29:31.821Z,114.65
2017-12-20T13:30:36.491Z,118.62
2017-12-20T13:31:40.572Z,115.97
2017-12-20T13:32:45.879Z,120.43
2017-12-20T13:33:50.847Z,122.22
2017-12-20T13:34:55.730Z,126.20
2017-12-20T13:36:01.962Z,125.65
2017-12-20T13:37:06.201Z,118.43
2017-12-20T13:38:10.451Z,113.82